createdAt,value
2022-12-03T00:01:14.284Z,18.20
2022-12-03T00:03:41.140Z,18.20
2022-12-03T00:06:07.914Z,18.20
2022-12-03T00:08:34.534Z,18.20
2022-12-03T00:11:01.172Z,18.20
2022-12-03T00:13:27.740Z,18.20
2022-12-03T00:15:54.410Z,18.20
2022-12-03T00:18:21.125Z,18.20
2022-12-03T00:20:47.732Z,18.10
2022-12-03T00:23:14.327Z,18.10
2022-12-03T00:25:40.923Z,18.10
2022-12-03T00:28:07.586Z,18.10
2022-12-03T00:30:34.275Z,18.10
2022-12-03T00:33:02.011Z,18.10
2022-12-03T00:35:28.686Z,18.10
2022-12-03T00:37:55.929Z,18.10
2022-12-03T00:40:22.503Z,18.10
2022-12-03T00:42:49.118Z,18.10
2022-12-03T00:45:15.859Z,18.10
2022-12-03T00:47:42.495Z,18.10
2022-12-03T00:50:10.671Z,18.10
2022-12-03T00:52:37.281Z,18.10
2022-12-03T00:55:04.154Z,18.10
2022-12-03T00:57:30.732Z,18.10
2022-12-03T00:59:57.307Z,18.10
2022-12-03T01:02:24.069Z,18.10
2022-12-03T01:04:51.017Z,18.10
2022-12-03T01:07:17.993Z,18.10
2022-12-03T01:09:44.599Z,18.10
2022-12-03T01:12:11.912Z,18.10
2022-12-03T01:14:38.546Z,18.10
2022-12-03T01:17:05.276Z,18.10
2022-12-03T01:19:31.992Z,18.10
2022-12-03T01:21:58.644Z,17.30
2022-12-03T01:24:25.324Z,18.10
2022-12-03T01:26:51.919Z,18.10
2022-12-03T01:29:18.573Z,18.10
2022-12-03T01:32:04.052Z,18.10
2022-12-03T01:34:30.714Z,18.10
2022-12-03T01:36:57.581Z,18.10
2022-12-03T01:39:24.428Z,18.10
2022-12-03T01:41:52.543Z,18.00
2022-12-03T01:44:24.595Z,18.10
2022-12-03T01:46:53.965Z,18.00
2022-12-03T01:49:24.775Z,18.10
2022-12-03T01:51:53.273Z,18.10
2022-12-03T01:54:28.433Z,18.00
2022-12-03T01:56:55.638Z,18.00
2022-12-03T01:59:29.570Z,18.00
2022-12-03T02:01:56.227Z,18.00
2022-12-03T02:04:23.775Z,18.00
2022-12-03T02:06:50.638Z,18.00
2022-12-03T02:09:17.262Z,18.00
2022-12-03T02:11:48.752Z,18.00
2022-12-03T02:14:21.576Z,18.00
2022-12-03T02:16:48.661Z,18.00
2022-12-03T02:19:24.799Z,18.00
2022-12-03T02:22:14.872Z,18.00
2022-12-03T02:24:59.202Z,18.00
2022-12-03T02:27:28.093Z,18.00
2022-12-03T02:29:55.060Z,18.00
2022-12-03T02:32:23.362Z,18.00
2022-12-03T02:34:50.823Z,18.00
2022-12-03T02:37:23.760Z,18.00
2022-12-03T02:39:54.087Z,18.00
2022-12-03T02:42:36.543Z,18.00
2022-12-03T02:45:10.934Z,18.00
2022-12-03T02:47:51.193Z,18.00
2022-12-03T02:50:21.319Z,18.00
2022-12-03T02:52:48.533Z,17.90
2022-12-03T02:55:17.077Z,18.00
2022-12-03T02:57:46.763Z,18.00
2022-12-03T03:00:14.231Z,17.90
2022-12-03T03:02:41.809Z,17.90
2022-12-03T03:05:11.722Z,17.90
2022-12-03T03:07:39.498Z,18.00
2022-12-03T03:10:08.968Z,17.90
2022-12-03T03:12:39.184Z,17.90
2022-12-03T03:15:07.303Z,17.90
2022-12-03T03:17:34.251Z,17.90
2022-12-03T03:20:01.885Z,17.90
2022-12-03T03:22:33.629Z,17.90
2022-12-03T03:25:00.336Z,17.90
2022-12-03T03:27:28.214Z,17.90
2022-12-03T03:29:57.047Z,17.90
2022-12-03T03:32:24.359Z,17.90
2022-12-03T03:34:51.308Z,17.90
2022-12-03T03:37:18.117Z,17.90
2022-12-03T03:39:44.819Z,17.90
2022-12-03T03:42:11.749Z,17.90
2022-12-03T03:44:38.764Z,17.90
2022-12-03T03:47:06.059Z,17.90
2022-12-03T03:49:33.267Z,17.90
2022-12-03T03:51:59.935Z,17.80
2022-12-03T03:54:26.883Z,17.90
2022-12-03T03:56:53.600Z,17.90
2022-12-03T03:59:20.203Z,17.90
2022-12-03T04:01:46.906Z,17.90
2022-12-03T04:04:20.583Z,17.80
2022-12-03T04:06:48.040Z,17.90
2022-12-03T04:09:14.832Z,17.90
2022-12-03T04:12:00.484Z,17.90
2022-12-03T04:14:27.080Z,17.90
2022-12-03T04:16:53.727Z,17.90
2022-12-03T04:19:20.327Z,17.90
2022-12-03T04:22:05.660Z,17.80
2022-12-03T04:24:32.246Z,17.80
2022-12-03T04:27:17.315Z,17.80
2022-12-03T04:29:43.898Z,17.80
2022-12-03T04:32:29.306Z,17.80
2022-12-03T04:35:14.581Z,17.80
2022-12-03T04:37:41.182Z,17.80
2022-12-03T04:40:28.369Z,17.80
2022-12-03T04:42:54.963Z,17.80
2022-12-03T04:45:21.576Z,17.80
2022-12-03T04:47:48.163Z,17.80
2022-12-03T04:50:14.860Z,17.80
2022-12-03T04:52:41.454Z,17.80
2022-12-03T04:55:08.441Z,17.80
2022-12-03T04:57:35.037Z,17.80
2022-12-03T05:00:01.984Z,17.80
2022-12-03T05:02:28.644Z,17.80
2022-12-03T05:04:55.499Z,17.80
2022-12-03T05:07:22.346Z,17.70
2022-12-03T05:09:48.926Z,17.70
2022-12-03T05:12:15.496Z,17.80
2022-12-03T05:14:42.078Z,17.70
2022-12-03T05:17:08.714Z,17.70
2022-12-03T05:19:53.873Z,17.70
2022-12-03T05:22:20.466Z,17.70
2022-12-03T05:24:47.032Z,17.70
2022-12-03T05:27:15.009Z,17.70
2022-12-03T05:29:43.238Z,17.70
2022-12-03T05:32:09.866Z,17.70
2022-12-03T05:34:36.458Z,17.70
2022-12-03T05:37:03.168Z,17.70
2022-12-03T05:39:29.777Z,17.70
2022-12-03T05:42:34.779Z,17.70
2022-12-03T05:45:02.145Z,17.70
2022-12-03T05:47:28.716Z,17.70
2022-12-03T05:49:55.311Z,17.70
2022-12-03T05:52:21.880Z,17.70
2022-12-03T05:54:48.549Z,17.70
2022-12-03T05:57:15.144Z,17.70
2022-12-03T05:59:41.740Z,17.70
2022-12-03T06:02:08.448Z,17.70
2022-12-03T06:04:35.154Z,17.70
2022-12-03T06:07:01.766Z,17.70
2022-12-03T06:09:28.368Z,17.60
2022-12-03T06:11:55.045Z,17.60
2022-12-03T06:14:21.709Z,17.60
2022-12-03T06:16:48.304Z,17.60
2022-12-03T06:19:14.914Z,17.70
2022-12-03T06:21:41.492Z,17.60
2022-12-03T06:24:08.194Z,17.60
2022-12-03T06:26:34.800Z,17.60
2022-12-03T06:29:01.402Z,17.70
2022-12-03T06:31:28.055Z,17.60
2022-12-03T06:33:54.720Z,17.60
2022-12-03T06:36:23.204Z,17.60
2022-12-03T06:38:50.095Z,17.60
2022-12-03T06:41:16.768Z,17.60
2022-12-03T06:43:43.341Z,17.60
2022-12-03T06:46:09.997Z,17.60
2022-12-03T06:48:36.758Z,17.60
2022-12-03T06:51:03.463Z,17.60
2022-12-03T06:53:30.057Z,17.60
2022-12-03T06:55:56.628Z,17.60
2022-12-03T06:58:23.236Z,17.70
2022-12-03T07:00:49.854Z,17.70
2022-12-03T07:03:16.523Z,17.70
2022-12-03T07:05:43.183Z,17.70
2022-12-03T07:08:09.862Z,17.70
2022-12-03T07:10:36.503Z,17.70
2022-12-03T07:13:03.131Z,17.70
2022-12-03T07:15:29.727Z,17.70
2022-12-03T07:17:56.382Z,17.70
2022-12-03T07:20:22.973Z,17.70
2022-12-03T07:22:49.640Z,17.70
2022-12-03T07:25:22.647Z,17.70
2022-12-03T07:27:49.962Z,17.70
2022-12-03T07:30:16.762Z,17.70
2022-12-03T07:32:43.350Z,17.70
2022-12-03T07:35:10.066Z,17.70
2022-12-03T07:37:37.119Z,17.70
2022-12-03T07:40:05.402Z,17.70
2022-12-03T07:42:32.078Z,17.70
2022-12-03T07:44:58.658Z,17.70
2022-12-03T07:47:25.255Z,17.70
2022-12-03T07:49:51.872Z,17.70
2022-12-03T07:52:18.478Z,17.70
2022-12-03T07:54:45.192Z,17.70
2022-12-03T07:57:11.792Z,17.80
2022-12-03T07:59:38.412Z,17.70
2022-12-03T08:02:05.127Z,17.70
2022-12-03T08:04:31.756Z,17.70
2022-12-03T08:06:58.368Z,17.80
2022-12-03T08:09:25.007Z,17.80
2022-12-03T08:11:52.284Z,17.80
2022-12-03T08:14:20.364Z,17.80
2022-12-03T08:16:48.267Z,17.80
2022-12-03T08:19:17.123Z,17.80
2022-12-03T08:21:44.359Z,17.80
2022-12-03T08:24:17.368Z,17.90
2022-12-03T08:26:45.188Z,17.80
2022-12-03T08:29:14.819Z,17.80
2022-12-03T08:31:42.030Z,17.80
2022-12-03T08:34:39.044Z,17.80
2022-12-03T08:37:16.845Z,17.80
2022-12-03T08:39:52.606Z,17.80
2022-12-03T08:42:41.461Z,17.90
2022-12-03T08:45:30.192Z,17.90
2022-12-03T08:48:05.998Z,17.90
2022-12-03T08:50:39.452Z,17.90
2022-12-03T08:53:31.563Z,17.90
2022-12-03T08:56:13.043Z,17.90
2022-12-03T08:58:43.975Z,17.90
2022-12-03T09:01:13.015Z,17.90
2022-12-03T09:03:51.589Z,17.90
2022-12-03T09:06:18.365Z,17.90
2022-12-03T09:08:44.950Z,17.90
2022-12-03T09:11:11.745Z,17.90
2022-12-03T09:13:38.439Z,18.00
2022-12-03T09:16:05.510Z,18.00
2022-12-03T09:18:32.523Z,18.00
2022-12-03T09:20:59.149Z,18.00
2022-12-03T09:23:25.736Z,18.00
2022-12-03T09:25:52.320Z,18.00
2022-12-03T09:28:18.893Z,18.00
2022-12-03T09:30:45.460Z,18.00
2022-12-03T09:33:12.155Z,18.00
2022-12-03T09:35:38.765Z,18.00
2022-12-03T09:38:05.323Z,18.00
2022-12-03T09:40:31.977Z,17.90
2022-12-03T09:42:58.668Z,18.00
2022-12-03T09:45:25.450Z,18.00
2022-12-03T09:47:52.461Z,18.00
2022-12-03T09:50:26.334Z,18.00
2022-12-03T09:52:55.089Z,18.00
2022-12-03T09:55:24.942Z,18.00
2022-12-03T09:57:53.303Z,18.00
2022-12-03T10:00:23.796Z,18.00
2022-12-03T10:02:52.740Z,18.00
2022-12-03T10:05:21.227Z,17.90
2022-12-03T10:07:49.654Z,17.90
2022-12-03T10:10:25.330Z,17.90
2022-12-03T10:12:52.653Z,17.90
2022-12-03T10:15:22.714Z,17.90
2022-12-03T10:17:52.033Z,18.00
2022-12-03T10:20:21.181Z,18.00
2022-12-03T10:22:50.632Z,18.00
2022-12-03T10:25:20.615Z,18.00
2022-12-03T10:27:59.463Z,18.00
2022-12-03T10:30:28.279Z,18.00
2022-12-03T10:32:57.458Z,17.90
2022-12-03T10:35:36.244Z,17.90
2022-12-03T10:38:06.190Z,17.90
2022-12-03T10:40:35.443Z,17.90
2022-12-03T10:43:23.806Z,17.90
2022-12-03T10:46:01.987Z,17.90
2022-12-03T10:48:30.574Z,17.90
2022-12-03T10:51:14.464Z,17.90
2022-12-03T10:53:41.377Z,17.90
2022-12-03T10:56:12.001Z,17.90
2022-12-03T10:58:40.327Z,17.90
2022-12-03T11:01:16.740Z,17.90
2022-12-03T11:03:44.104Z,17.90
2022-12-03T11:06:24.012Z,17.90
2022-12-03T11:08:57.534Z,17.90
2022-12-03T11:11:30.730Z,17.90
2022-12-03T11:13:59.803Z,17.90
2022-12-03T11:16:41.663Z,17.90
2022-12-03T11:19:18.079Z,17.90
2022-12-03T11:22:03.444Z,17.90
2022-12-03T11:24:31.835Z,17.90
2022-12-03T11:26:58.368Z,17.90
2022-12-03T11:29:58.775Z,17.90
2022-12-03T11:32:43.304Z,17.90
2022-12-03T11:35:34.605Z,17.90
2022-12-03T11:38:37.764Z,18.30
2022-12-03T11:41:13.593Z,17.90
2022-12-03T11:43:52.044Z,17.90
2022-12-03T11:46:28.553Z,17.90
2022-12-03T11:48:58.433Z,17.90
2022-12-03T11:51:27.238Z,17.90
2022-12-03T11:53:58.604Z,18.00
2022-12-03T11:56:27.461Z,17.90
2022-12-03T11:59:02.250Z,17.90
2022-12-03T12:01:38.603Z,18.00
2022-12-03T12:04:07.206Z,17.90
2022-12-03T12:06:44.437Z,18.00
2022-12-03T12:09:11.218Z,18.00
2022-12-03T12:11:43.460Z,18.00
2022-12-03T12:14:11.994Z,18.00
2022-12-03T12:16:55.223Z,18.00
2022-12-03T12:19:42.073Z,17.90
2022-12-03T12:22:17.658Z,17.90
2022-12-03T12:24:46.878Z,17.90
2022-12-03T12:27:24.118Z,18.00
2022-12-03T12:29:56.529Z,17.90
2022-12-03T12:32:32.390Z,18.00
2022-12-03T12:35:19.591Z,18.00
2022-12-03T12:37:59.780Z,18.00
2022-12-03T12:40:32.241Z,18.00
2022-12-03T12:43:24.820Z,18.00
2022-12-03T12:45:56.581Z,18.00
2022-12-03T12:48:33.750Z,18.00
2022-12-03T12:51:07.697Z,18.00
2022-12-03T12:53:36.288Z,18.00
2022-12-03T12:56:18.980Z,18.00
2022-12-03T12:58:45.818Z,18.00
2022-12-03T13:01:20.887Z,18.00
2022-12-03T13:03:51.055Z,18.00
2022-12-03T13:06:19.011Z,18.00
2022-12-03T13:08:48.565Z,18.00
2022-12-03T13:11:24.328Z,18.00
2022-12-03T13:13:51.746Z,18.00
2022-12-03T13:16:23.162Z,18.00
2022-12-03T13:18:54.523Z,18.00
2022-12-03T13:21:40.955Z,18.00
2022-12-03T13:24:25.952Z,18.00
2022-12-03T13:26:52.617Z,18.00
2022-12-03T13:29:20.805Z,18.00
2022-12-03T13:32:01.623Z,18.00
2022-12-03T13:34:33.244Z,18.00
2022-12-03T13:37:01.208Z,18.00
2022-12-03T13:39:34.300Z,18.00
2022-12-03T13:42:35.270Z,18.00
2022-12-03T13:45:02.466Z,18.10
2022-12-03T13:47:29.105Z,18.00
2022-12-03T13:50:03.241Z,18.00
2022-12-03T13:52:34.252Z,17.90
2022-12-03T13:55:03.545Z,18.00
2022-12-03T13:57:30.127Z,18.00
2022-12-03T13:59:57.074Z,18.00
2022-12-03T14:02:23.858Z,18.00
2022-12-03T14:04:54.106Z,18.00
2022-12-03T14:07:23.519Z,18.00
2022-12-03T14:09:50.115Z,18.00
2022-12-03T14:12:25.621Z,18.00
2022-12-03T14:14:52.693Z,18.00
2022-12-03T14:17:19.332Z,18.00
2022-12-03T14:19:46.237Z,18.00
2022-12-03T14:22:12.835Z,18.00
2022-12-03T14:24:42.213Z,18.00
2022-12-03T14:27:08.845Z,18.00
2022-12-03T14:29:35.448Z,18.00
2022-12-03T14:32:02.295Z,18.10
2022-12-03T14:34:28.975Z,18.00
2022-12-03T14:36:55.576Z,18.00
2022-12-03T14:39:22.248Z,18.00
2022-12-03T14:42:07.724Z,18.00
2022-12-03T14:44:34.347Z,18.00
2022-12-03T14:47:01.019Z,18.10
2022-12-03T14:49:29.902Z,18.10
2022-12-03T14:51:56.556Z,18.10
2022-12-03T14:54:23.147Z,18.10
2022-12-03T14:56:49.751Z,18.00
2022-12-03T14:59:16.487Z,18.00
2022-12-03T15:01:43.106Z,18.00
2022-12-03T15:04:09.879Z,18.00
2022-12-03T15:06:36.575Z,18.10
2022-12-03T15:09:03.938Z,18.10
2022-12-03T15:11:30.518Z,18.00
2022-12-03T15:13:57.167Z,18.00
2022-12-03T15:16:23.823Z,18.00
2022-12-03T15:18:50.562Z,18.10
2022-12-03T15:21:17.245Z,18.10
2022-12-03T15:23:43.923Z,18.00
2022-12-03T15:26:10.523Z,18.00
2022-12-03T15:28:37.118Z,18.00
2022-12-03T15:31:03.841Z,18.00
2022-12-03T15:33:30.551Z,18.00
2022-12-03T15:35:57.593Z,18.00
2022-12-03T15:38:24.276Z,18.00
2022-12-03T15:40:51.134Z,18.00
2022-12-03T15:43:17.829Z,18.00
2022-12-03T15:45:44.580Z,18.20
2022-12-03T15:48:13.426Z,18.00
2022-12-03T15:50:40.888Z,18.00
2022-12-03T15:53:07.757Z,18.00
2022-12-03T15:55:34.444Z,18.00
2022-12-03T15:58:01.039Z,18.00
2022-12-03T16:00:27.627Z,18.00
2022-12-03T16:02:54.241Z,18.00
2022-12-03T16:05:21.028Z,18.10
2022-12-03T16:07:47.640Z,18.00
2022-12-03T16:10:16.585Z,18.00
2022-12-03T16:12:43.222Z,18.00
2022-12-03T16:15:10.013Z,18.00
2022-12-03T16:17:36.594Z,18.00
2022-12-03T16:20:03.525Z,18.00
2022-12-03T16:22:30.165Z,18.00
2022-12-03T16:24:56.763Z,18.00
2022-12-03T16:27:25.837Z,18.00
2022-12-03T16:29:53.181Z,18.10
2022-12-03T16:32:20.079Z,18.00
2022-12-03T16:34:46.730Z,18.00
2022-12-03T16:37:13.433Z,18.00
2022-12-03T16:39:40.097Z,18.00
2022-12-03T16:42:10.426Z,18.00
2022-12-03T16:45:14.675Z,18.00
2022-12-03T16:47:41.255Z,18.10
2022-12-03T16:50:13.003Z,18.00
2022-12-03T16:52:47.059Z,18.10
2022-12-03T16:55:13.782Z,18.00
2022-12-03T16:57:40.344Z,18.00
2022-12-03T17:00:07.715Z,18.30
2022-12-03T17:02:34.426Z,18.00
2022-12-03T17:05:01.125Z,18.00
2022-12-03T17:07:27.962Z,18.30
2022-12-03T17:09:54.854Z,18.00
2022-12-03T17:12:21.636Z,18.00
2022-12-03T17:14:48.226Z,18.10
2022-12-03T17:17:14.809Z,18.00
2022-12-03T17:19:41.400Z,18.00
2022-12-03T17:22:08.000Z,18.00
2022-12-03T17:24:34.672Z,18.00
2022-12-03T17:27:01.266Z,18.00
2022-12-03T17:29:27.843Z,18.00
2022-12-03T17:31:54.491Z,18.10
2022-12-03T17:34:21.081Z,18.10
2022-12-03T17:36:47.644Z,18.10
2022-12-03T17:39:14.242Z,18.00
2022-12-03T17:41:40.827Z,18.10
2022-12-03T17:44:10.337Z,18.00
2022-12-03T17:46:38.180Z,18.00
2022-12-03T17:49:05.430Z,18.10
2022-12-03T17:51:32.062Z,18.00
2022-12-03T17:53:58.674Z,18.10
2022-12-03T17:56:25.502Z,18.00
2022-12-03T17:58:52.129Z,18.10
2022-12-03T18:01:18.719Z,18.10
2022-12-03T18:03:45.386Z,18.10
2022-12-03T18:06:12.062Z,18.10
2022-12-03T18:08:38.655Z,18.10
2022-12-03T18:11:05.439Z,18.10
2022-12-03T18:13:32.005Z,18.10
2022-12-03T18:15:58.721Z,18.10
2022-12-03T18:18:25.399Z,18.10
2022-12-03T18:20:53.243Z,18.10
2022-12-03T18:23:20.002Z,18.10
2022-12-03T18:25:46.599Z,18.10
2022-12-03T18:28:13.197Z,18.10
2022-12-03T18:30:39.887Z,18.10
2022-12-03T18:33:06.731Z,18.10
2022-12-03T18:35:33.504Z,18.10
2022-12-03T18:38:00.267Z,18.10
2022-12-03T18:40:27.167Z,18.10
2022-12-03T18:42:55.175Z,18.10
2022-12-03T18:45:21.763Z,18.10
2022-12-03T18:47:48.467Z,18.10
2022-12-03T18:50:15.108Z,18.10
2022-12-03T18:52:41.739Z,18.10
2022-12-03T18:55:13.763Z,18.10
2022-12-03T18:57:40.339Z,18.10
2022-12-03T19:00:13.262Z,18.10
2022-12-03T19:05:27.452Z,18.10
2022-12-03T19:07:55.532Z,18.10
2022-12-03T19:10:22.728Z,18.10
2022-12-03T19:12:49.794Z,18.10
2022-12-03T19:15:17.159Z,18.10
2022-12-03T19:17:49.099Z,18.00
2022-12-03T19:20:16.011Z,18.10
2022-12-03T19:22:42.606Z,18.00
2022-12-03T19:25:09.398Z,18.10
2022-12-03T19:27:35.994Z,18.00
2022-12-03T19:30:02.664Z,18.10
2022-12-03T19:32:29.293Z,18.00
2022-12-03T19:34:55.927Z,18.00
2022-12-03T19:37:22.506Z,18.00
2022-12-03T19:39:53.162Z,18.00
2022-12-03T19:42:19.936Z,18.10
2022-12-03T19:44:46.560Z,18.00
2022-12-03T19:47:13.162Z,18.10
2022-12-03T19:49:39.757Z,18.00
2022-12-03T19:52:06.347Z,18.00
2022-12-03T19:54:32.923Z,18.00
2022-12-03T19:56:59.806Z,18.00
2022-12-03T19:59:26.458Z,18.00
2022-12-03T20:01:53.324Z,18.00
2022-12-03T20:04:20.153Z,18.00
2022-12-03T20:06:47.464Z,18.00
2022-12-03T20:09:17.539Z,18.00
2022-12-03T20:11:45.618Z,18.00
2022-12-03T20:14:15.262Z,18.00
2022-12-03T20:16:42.813Z,18.00
2022-12-03T20:19:12.500Z,18.00
2022-12-03T20:21:40.418Z,18.00
2022-12-03T20:24:08.615Z,18.00
2022-12-03T20:26:35.277Z,18.00
2022-12-03T20:29:01.949Z,18.00
2022-12-03T20:31:30.919Z,18.00
2022-12-03T20:34:00.132Z,18.00
2022-12-03T20:36:28.284Z,18.00
2022-12-03T20:39:00.414Z,18.00
2022-12-03T20:41:27.552Z,18.00
2022-12-03T20:43:54.151Z,18.00
2022-12-03T20:46:29.363Z,18.00
2022-12-03T20:48:57.146Z,18.00
2022-12-03T20:51:26.368Z,18.00
2022-12-03T20:53:53.439Z,18.00
2022-12-03T20:56:26.074Z,18.00
2022-12-03T20:58:53.613Z,18.00
2022-12-03T21:01:26.268Z,18.00
2022-12-03T21:03:54.874Z,18.00
2022-12-03T21:06:22.990Z,18.00
2022-12-03T21:08:49.615Z,18.00
2022-12-03T21:11:21.435Z,18.00
2022-12-03T21:13:48.156Z,18.00
2022-12-03T21:16:18.330Z,18.00
2022-12-03T21:18:45.868Z,18.00
2022-12-03T21:21:14.819Z,18.00
2022-12-03T21:23:42.661Z,18.00
2022-12-03T21:26:16.357Z,18.00
2022-12-03T21:28:45.017Z,18.00
2022-12-03T21:31:14.389Z,18.00
2022-12-03T21:33:41.013Z,18.00
2022-12-03T21:36:10.064Z,18.00
2022-12-03T21:38:37.920Z,18.00
2022-12-03T21:41:05.128Z,18.00
2022-12-03T21:43:32.462Z,18.00
2022-12-03T21:45:59.130Z,18.00
2022-12-03T21:48:25.963Z,18.00
2022-12-03T21:51:04.613Z,18.00
2022-12-03T21:53:33.239Z,18.00
2022-12-03T21:56:03.485Z,18.00
2022-12-03T21:58:32.431Z,18.00
2022-12-03T22:00:59.068Z,18.00
2022-12-03T22:03:25.778Z,18.00
2022-12-03T22:05:52.448Z,18.00
2022-12-03T22:08:19.212Z,18.00
2022-12-03T22:10:45.848Z,18.00
2022-12-03T22:13:12.505Z,18.00
2022-12-03T22:15:39.933Z,18.00
2022-12-03T22:18:06.839Z,18.00
2022-12-03T22:20:33.467Z,18.00
2022-12-03T22:23:00.081Z,18.00
2022-12-03T22:25:26.708Z,18.00
2022-12-03T22:27:53.281Z,18.00
2022-12-03T22:30:19.923Z,18.00
2022-12-03T22:32:46.657Z,18.00
2022-12-03T22:35:13.323Z,18.00
2022-12-03T22:37:39.948Z,18.00
2022-12-03T22:40:07.045Z,18.00
2022-12-03T22:42:33.661Z,18.00
2022-12-03T22:45:00.269Z,18.00
2022-12-03T22:47:26.874Z,18.00
2022-12-03T22:49:53.653Z,18.00
2022-12-03T22:52:20.507Z,18.00
2022-12-03T22:54:47.092Z,18.00
2022-12-03T22:57:13.715Z,18.00
2022-12-03T22:59:40.364Z,18.00
2022-12-03T23:02:06.958Z,18.00
2022-12-03T23:04:33.533Z,18.00
2022-12-03T23:07:00.166Z,18.00
2022-12-03T23:09:26.879Z,18.00
2022-12-03T23:11:53.565Z,18.00
2022-12-03T23:14:20.160Z,17.90
2022-12-03T23:16:46.745Z,17.90
2022-12-03T23:19:13.703Z,17.90
2022-12-03T23:21:40.406Z,17.90
2022-12-03T23:24:07.707Z,17.90
2022-12-03T23:26:36.564Z,17.90
2022-12-03T23:29:05.195Z,17.90
2022-12-03T23:31:33.201Z,17.90
2022-12-03T23:34:00.310Z,17.90
2022-12-03T23:36:29.488Z,17.90
2022-12-03T23:38:56.084Z,17.90
2022-12-03T23:41:23.927Z,17.90
2022-12-03T23:43:50.615Z,17.90
2022-12-03T23:46:23.580Z,17.90
2022-12-03T23:48:51.083Z,17.90
2022-12-03T23:51:20.670Z,17.90
2022-12-03T23:53:48.097Z,17.90
2022-12-03T23:56:18.766Z,17.90
2022-12-03T23:58:46.310Z,17.90
